Time;durP1;ratioP1;P1;durP2;ratioP2;P2;SDS_P1;SDS_P2;PMS_P1;PMS_P2;Temp;Humidity;BMP_temperature;BMP_pressure;BME280_temperature;BME280_humidity;BME280_pressure;Samples;Min_cycle;Max_cycle;Signal;HPM_P1;HPM_P2
2023/07/15 00:01:38;;;;;;;7.07;3.17;;;22.10;63.40;;;;;;5106206;28;20488;-81
2023/07/15 00:04:13;;;;;;;6.33;3.40;;;22.00;63.50;;;;;;5107384;28;20525;-81
2023/07/15 00:06:44;;;;;;;5.63;3.60;;;22.00;63.60;;;;;;5111618;28;20470;-81
2023/07/15 00:09:12;;;;;;;6.83;3.40;;;22.00;63.60;;;;;;5108569;28;20536;-81
2023/07/15 00:11:42;;;;;;;7.70;3.40;;;21.90;63.50;;;;;;5108010;28;20531;-81
2023/07/15 00:14:16;;;;;;;9.00;3.67;;;21.90;63.60;;;;;;5111134;28;20447;-82
2023/07/15 00:16:44;;;;;;;8.27;3.40;;;21.90;63.60;;;;;;5105952;28;20496;-82
2023/07/15 00:19:12;;;;;;;9.33;3.67;;;21.80;63.60;;;;;;5109546;28;20482;-81
2023/07/15 00:21:40;;;;;;;5.83;3.10;;;21.80;63.70;;;;;;5104713;28;20472;-81
2023/07/15 00:24:09;;;;;;;9.17;3.87;;;21.80;63.80;;;;;;5105174;28;20451;-81
2023/07/15 00:26:37;;;;;;;10.73;3.93;;;21.80;63.90;;;;;;5107046;28;20539;-81
2023/07/15 00:29:06;;;;;;;7.90;3.60;;;21.80;64.00;;;;;;5110613;27;20456;-81
2023/07/15 00:31:43;;;;;;;7.70;3.63;;;21.80;64.10;;;;;;5102371;28;20462;-82
2023/07/15 00:34:13;;;;;;;9.70;3.53;;;21.80;64.10;;;;;;5103663;28;20977;-81
2023/07/15 00:36:42;;;;;;;7.83;3.90;;;21.70;64.20;;;;;;5103673;28;20452;-81
2023/07/15 00:39:11;;;;;;;7.00;3.30;;;21.70;64.20;;;;;;5101899;27;20444;-81
2023/07/15 00:41:42;;;;;;;7.90;3.90;;;21.70;64.30;;;;;;5108428;28;21046;-81
2023/07/15 00:44:14;;;;;;;8.57;3.60;;;21.60;64.50;;;;;;5104829;28;20456;-81
2023/07/15 00:46:59;;;;;;;8.50;3.70;;;21.60;64.50;;;;;;5101026;28;20444;-81
2023/07/15 00:49:31;;;;;;;6.33;3.80;;;21.50;64.60;;;;;;5109562;28;20505;-82
2023/07/15 00:52:04;;;;;;;6.30;3.43;;;21.50;64.60;;;;;;5103387;28;20939;-81
2023/07/15 00:54:36;;;;;;;7.17;3.50;;;21.50;64.60;;;;;;5105418;28;20495;-81
2023/07/15 00:57:07;;;;;;;9.07;3.97;;;21.40;64.70;;;;;;5107132;28;20447;-82
2023/07/15 00:59:38;;;;;;;12.37;3.70;;;21.40;64.80;;;;;;5108658;28;21020;-81
2023/07/15 01:02:09;;;;;;;8.90;3.50;;;21.40;64.80;;;;;;5104099;28;21153;-80
2023/07/15 01:04:38;;;;;;;6.80;3.90;;;21.40;64.90;;;;;;5107485;28;21250;-81
2023/07/15 01:07:06;;;;;;;6.97;3.33;;;21.30;64.90;;;;;;5103499;28;20473;-81
2023/07/15 01:09:38;;;;;;;9.53;3.97;;;21.30;65.00;;;;;;5108919;27;20980;-81
2023/07/15 01:12:08;;;;;;;6.00;3.53;;;21.30;65.10;;;;;;5101588;28;20523;-81
2023/07/15 01:14:36;;;;;;;6.57;3.33;;;21.20;65.20;;;;;;5102262;28;20483;-81
2023/07/15 01:17:05;;;;;;;8.43;4.07;;;21.20;65.20;;;;;;5102734;28;20529;-82
2023/07/15 01:19:35;;;;;;;5.63;3.60;;;21.10;65.20;;;;;;5104699;28;20470;-81
2023/07/15 01:22:06;;;;;;;6.97;3.57;;;21.00;65.40;;;;;;5106200;28;20475;-81
2023/07/15 01:24:37;;;;;;;6.90;3.80;;;21.00;65.50;;;;;;5109304;28;20455;-81
2023/07/15 01:27:08;;;;;;;7.87;3.60;;;20.90;65.60;;;;;;5104045;28;20452;-80
2023/07/15 01:29:37;;;;;;;10.20;3.80;;;20.90;65.80;;;;;;5106747;28;21056;-81
2023/07/15 01:32:06;;;;;;;8.40;3.90;;;20.80;65.80;;;;;;5107156;28;20886;-80
2023/07/15 01:34:36;;;;;;;7.97;4.00;;;20.80;65.80;;;;;;5097131;28;20470;-81
2023/07/15 01:37:05;;;;;;;8.13;3.40;;;20.70;65.90;;;;;;5096008;28;20456;-82
2023/07/15 01:39:34;;;;;;;11.30;3.63;;;20.70;66.10;;;;;;5106340;28;20448;-81
2023/07/15 01:42:04;;;;;;;7.00;3.80;;;20.70;66.10;;;;;;5103350;28;20500;-81
2023/07/15 01:44:34;;;;;;;8.10;3.70;;;20.60;66.20;;;;;;5102209;28;20564;-81
2023/07/15 01:47:10;;;;;;;8.73;3.90;;;20.60;66.30;;;;;;5104562;28;20558;-82
2023/07/15 01:49:38;;;;;;;6.10;3.50;;;20.60;66.50;;;;;;5103270;28;21050;-82
2023/07/15 01:52:07;;;;;;;7.50;3.77;;;20.50;66.50;;;;;;5101987;28;20517;-81
2023/07/15 01:54:35;;;;;;;6.70;3.93;;;20.50;66.50;;;;;;5100433;28;20452;-81
2023/07/15 01:57:06;;;;;;;8.23;4.47;;;20.50;66.60;;;;;;5098652;28;20460;-81
2023/07/15 01:59:34;;;;;;;9.17;4.13;;;20.50;66.60;;;;;;5101058;28;20459;-81
2023/07/15 02:02:02;;;;;;;7.07;3.90;;;20.50;66.70;;;;;;5102644;28;20471;-82
2023/07/15 02:04:30;;;;;;;6.90;4.10;;;20.50;66.70;;;;;;5103576;28;20487;-81
2023/07/15 02:06:58;;;;;;;10.63;3.87;;;20.50;66.80;;;;;;5100944;28;20452;-81
2023/07/15 02:09:26;;;;;;;5.70;3.60;;;20.50;66.90;;;;;;5103722;28;20543;-81
2023/07/15 02:11:54;;;;;;;8.37;3.87;;;20.50;67.00;;;;;;5106682;28;20520;-81
2023/07/15 02:14:24;;;;;;;5.90;3.50;;;20.50;67.00;;;;;;5101749;28;20513;-81
2023/07/15 02:16:52;;;;;;;6.93;3.80;;;20.50;67.00;;;;;;5101340;28;20492;-81
2023/07/15 02:19:20;;;;;;;6.80;3.97;;;20.50;67.00;;;;;;5105063;28;20753;-80
2023/07/15 02:21:49;;;;;;;9.60;4.17;;;20.50;67.00;;;;;;5101375;28;20473;-80
2023/07/15 02:24:17;;;;;;;13.50;4.30;;;20.50;67.00;;;;;;5104988;28;20828;-80
2023/07/15 02:26:45;;;;;;;6.40;3.33;;;20.40;67.00;;;;;;5119571;28;20498;-81
2023/07/15 02:29:14;;;;;;;8.30;4.23;;;20.40;67.00;;;;;;5104835;28;20555;-80
2023/07/15 02:31:43;;;;;;;9.73;4.47;;;20.40;67.00;;;;;;5106162;28;20464;-80
2023/07/15 02:34:13;;;;;;;7.40;4.00;;;20.40;66.90;;;;;;5105764;28;20553;-80
2023/07/15 02:36:42;;;;;;;5.80;3.70;;;20.40;66.90;;;;;;5099395;28;20978;-82
2023/07/15 02:39:11;;;;;;;8.63;4.10;;;20.40;66.90;;;;;;5102843;28;20456;-81
2023/07/15 02:41:39;;;;;;;8.30;3.80;;;20.40;67.00;;;;;;5101955;28;20928;-82
2023/07/15 02:44:07;;;;;;;6.60;3.50;;;20.30;67.00;;;;;;5099569;28;20471;-80
2023/07/15 02:46:35;;;;;;;8.17;3.70;;;20.30;67.00;;;;;;5105899;28;20961;-80
2023/07/15 02:49:06;;;;;;;7.30;3.80;;;20.30;67.10;;;;;;5101015;28;20510;-81
2023/07/15 02:51:37;;;;;;;7.13;3.97;;;20.30;67.20;;;;;;5099814;28;20965;-81
2023/07/15 02:54:06;;;;;;;7.80;3.80;;;20.30;67.20;;;;;;5100669;28;20452;-80
2023/07/15 02:56:34;;;;;;;6.57;3.80;;;20.30;67.20;;;;;;5098969;28;20517;-80
2023/07/15 02:59:02;;;;;;;7.90;4.03;;;20.30;67.20;;;;;;5108949;28;20505;-80
2023/07/15 03:01:32;;;;;;;6.70;3.67;;;20.30;67.30;;;;;;5108442;28;20518;-81
2023/07/15 03:04:01;;;;;;;6.03;3.90;;;20.30;67.30;;;;;;5099456;28;20986;-81
2023/07/15 03:06:33;;;;;;;8.37;4.10;;;20.30;67.30;;;;;;5109058;28;20463;-82
2023/07/15 03:09:01;;;;;;;9.40;4.53;;;20.30;67.30;;;;;;5107311;28;20485;-81
2023/07/15 03:11:29;;;;;;;9.03;5.13;;;20.30;67.40;;;;;;5105717;28;20547;-80
2023/07/15 03:13:57;;;;;;;8.10;3.90;;;20.20;67.40;;;;;;5102701;28;20455;-82
2023/07/15 03:16:26;;;;;;;8.00;4.27;;;20.20;67.40;;;;;;5107494;28;20559;-81
2023/07/15 03:18:54;;;;;;;7.83;4.17;;;20.20;67.50;;;;;;5107126;28;20959;-81
2023/07/15 03:21:22;;;;;;;9.20;3.90;;;20.10;67.50;;;;;;5104060;28;20460;-81
2023/07/15 03:23:51;;;;;;;8.60;4.40;;;20.10;67.60;;;;;;5099494;28;20474;-81
2023/07/15 03:26:19;;;;;;;7.93;4.50;;;20.00;67.70;;;;;;5100856;28;20550;-80
2023/07/15 03:28:47;;;;;;;7.50;4.27;;;20.00;67.80;;;;;;5101506;28;20695;-80
2023/07/15 03:31:15;;;;;;;9.07;4.67;;;20.10;67.90;;;;;;5116247;27;20854;-80
2023/07/15 03:33:43;;;;;;;7.60;4.37;;;20.10;68.00;;;;;;5102349;28;20462;-81
2023/07/15 03:36:11;;;;;;;8.50;4.73;;;20.10;68.00;;;;;;5105942;28;20476;-81
2023/07/15 03:38:41;;;;;;;7.97;3.43;;;20.10;67.90;;;;;;5104061;28;20460;-80
2023/07/15 03:41:10;;;;;;;7.17;4.17;;;20.00;67.90;;;;;;5104083;28;20452;-80
2023/07/15 03:43:38;;;;;;;7.70;4.30;;;20.00;68.00;;;;;;5103206;28;20472;-81
2023/07/15 03:46:06;;;;;;;6.57;4.10;;;20.00;68.10;;;;;;5105406;28;20543;-81
2023/07/15 03:48:34;;;;;;;6.90;4.23;;;20.00;68.20;;;;;;5103526;28;20559;-82
2023/07/15 03:51:02;;;;;;;7.23;4.00;;;20.00;68.30;;;;;;5104612;28;20456;-82
2023/07/15 03:53:30;;;;;;;8.73;3.97;;;20.10;68.40;;;;;;5109725;28;20519;-81
2023/07/15 03:55:58;;;;;;;8.27;4.33;;;20.10;68.40;;;;;;5108764;28;20985;-82
2023/07/15 03:58:27;;;;;;;10.17;4.30;;;20.10;68.40;;;;;;5107914;28;20547;-81
2023/07/15 04:00:57;;;;;;;7.13;3.83;;;20.20;68.40;;;;;;5110870;28;20514;-80
2023/07/15 04:03:25;;;;;;;7.20;4.37;;;20.30;68.40;;;;;;5108518;28;20985;-80
2023/07/15 04:05:53;;;;;;;7.30;3.93;;;20.30;68.40;;;;;;5109213;28;20468;-81
2023/07/15 04:08:21;;;;;;;8.63;4.07;;;20.30;68.40;;;;;;5103720;28;20812;-81
2023/07/15 04:10:49;;;;;;;7.40;4.37;;;20.30;68.40;;;;;;5106479;28;20955;-81
2023/07/15 04:13:29;;;;;;;7.10;4.13;;;20.30;68.50;;;;;;5103024;28;20547;-81
2023/07/15 04:15:57;;;;;;;8.73;5.20;;;20.40;68.60;;;;;;5105161;28;20520;-81
2023/07/15 04:18:25;;;;;;;7.80;4.30;;;20.40;68.60;;;;;;5105702;28;20445;-80
2023/07/15 04:20:53;;;;;;;7.20;4.67;;;20.50;68.70;;;;;;5104369;28;20456;-82
2023/07/15 04:23:21;;;;;;;7.40;4.67;;;20.50;68.70;;;;;;5103543;28;21328;-82
2023/07/15 04:25:49;;;;;;;8.60;4.27;;;20.60;68.70;;;;;;5103429;28;20510;-81
2023/07/15 04:28:17;;;;;;;7.30;4.03;;;20.70;68.90;;;;;;5102831;28;20540;-81
2023/07/15 04:30:46;;;;;;;8.13;3.73;;;20.80;69.00;;;;;;5104799;28;20484;-81
2023/07/15 04:33:15;;;;;;;7.83;4.57;;;20.90;69.00;;;;;;5101920;28;20453;-81
2023/07/15 04:35:44;;;;;;;8.70;4.70;;;20.90;68.90;;;;;;5104669;28;20552;-81
2023/07/15 04:38:12;;;;;;;7.70;4.40;;;21.00;68.90;;;;;;5104201;28;20536;-82
2023/07/15 04:40:40;;;;;;;8.47;4.43;;;21.10;68.90;;;;;;5107082;28;20453;-82
2023/07/15 04:43:08;;;;;;;12.33;4.70;;;21.20;68.90;;;;;;5106731;28;20535;-82
2023/07/15 04:45:36;;;;;;;7.07;4.37;;;21.40;68.80;;;;;;5103465;28;20449;-81
2023/07/15 04:48:06;;;;;;;7.63;4.67;;;21.50;68.80;;;;;;5107997;28;20456;-81
2023/07/15 04:50:34;;;;;;;11.00;5.13;;;21.60;68.60;;;;;;5107974;28;20456;-81
2023/07/15 04:53:02;;;;;;;10.10;4.30;;;21.80;68.50;;;;;;5117887;27;20457;-81
2023/07/15 04:55:30;;;;;;;8.80;4.57;;;21.90;68.50;;;;;;5106497;28;20461;-81
2023/07/15 04:57:58;;;;;;;8.93;4.27;;;22.00;68.50;;;;;;5104797;28;20547;-82
2023/07/15 05:00:27;;;;;;;13.30;4.57;;;22.20;68.40;;;;;;5105497;28;20854;-81
2023/07/15 05:02:55;;;;;;;12.97;3.80;;;22.30;68.20;;;;;;5103775;28;20962;-81
2023/07/15 05:05:28;;;;;;;11.57;3.93;;;22.50;68.20;;;;;;5107187;28;20512;-81
2023/07/15 05:08:03;;;;;;;7.40;4.20;;;22.60;68.10;;;;;;5103426;28;21321;-82
2023/07/15 05:10:31;;;;;;;6.90;4.20;;;22.80;68.00;;;;;;5106959;28;20464;-81
2023/07/15 05:12:59;;;;;;;9.67;4.20;;;23.00;68.00;;;;;;5106225;28;20447;-81
2023/07/15 05:15:29;;;;;;;7.57;3.57;;;23.10;67.80;;;;;;5101913;28;20460;-79
2023/07/15 05:17:57;;;;;;;8.20;4.23;;;23.30;67.70;;;;;;5107289;28;20467;-81
2023/07/15 05:20:25;;;;;;;34.87;5.23;;;23.40;67.60;;;;;;5103940;28;20518;-81
2023/07/15 05:22:55;;;;;;;6.93;3.70;;;23.60;67.50;;;;;;5103231;28;21152;-82
2023/07/15 05:25:23;;;;;;;11.40;4.87;;;23.80;67.40;;;;;;5099282;28;21074;-83
2023/07/15 05:27:51;;;;;;;9.67;5.03;;;24.00;67.30;;;;;;5104851;28;20551;-82
2023/07/15 05:30:19;;;;;;;7.40;3.73;;;24.10;67.10;;;;;;5107841;28;20488;-82
2023/07/15 05:33:09;;;;;;;7.90;3.70;;;24.30;67.00;;;;;;5102173;28;20951;-81
2023/07/15 05:35:37;;;;;;;6.67;4.00;;;24.50;66.90;;;;;;5099866;28;20456;-81
2023/07/15 05:38:09;;;;;;;10.30;3.93;;;24.80;66.90;;;;;;5098781;28;20486;-82
2023/07/15 05:40:41;;;;;;;8.50;3.97;;;25.20;66.70;;;;;;5099567;28;20504;-82
2023/07/15 05:43:10;;;;;;;10.73;4.10;;;25.90;65.90;;;;;;5100908;28;20480;-82
2023/07/15 05:45:38;;;;;;;8.17;3.63;;;26.60;64.30;;;;;;5096739;27;20500;-81
2023/07/15 05:48:07;;;;;;;8.37;3.70;;;27.60;62.70;;;;;;5100400;28;20488;-82
2023/07/15 05:50:37;;;;;;;6.20;3.43;;;28.60;61.00;;;;;;5098651;28;20456;-82
2023/07/15 05:53:05;;;;;;;6.67;3.20;;;29.60;59.50;;;;;;5103602;28;20544;-80
2023/07/15 05:55:37;;;;;;;6.10;3.13;;;30.60;58.20;;;;;;5097612;28;20542;-80
2023/07/15 05:58:09;;;;;;;9.73;3.90;;;31.40;56.90;;;;;;5098404;28;20476;-82
2023/07/15 06:00:44;;;;;;;8.43;4.00;;;32.10;56.10;;;;;;5107851;28;20478;-82
2023/07/15 06:03:13;;;;;;;10.37;4.27;;;32.80;54.60;;;;;;5107187;28;21084;-81
2023/07/15 06:05:43;;;;;;;6.10;3.10;;;33.40;54.00;;;;;;5102129;28;20993;-80
2023/07/15 06:08:12;;;;;;;6.27;3.17;;;33.90;52.90;;;;;;5102045;28;20551;-81
2023/07/15 06:10:44;;;;;;;6.70;3.40;;;34.30;52.00;;;;;;5099455;28;20559;-81
2023/07/15 06:13:12;;;;;;;6.00;3.30;;;34.80;51.00;;;;;;5100856;28;20947;-81
2023/07/15 06:15:42;;;;;;;6.17;2.80;;;35.20;50.30;;;;;;5102658;28;20476;-81
2023/07/15 06:18:11;;;;;;;6.70;3.03;;;35.40;49.40;;;;;;5105694;28;20452;-81
2023/07/15 06:20:41;;;;;;;6.40;3.50;;;35.00;48.70;;;;;;5104673;28;20900;-81
2023/07/15 06:23:09;;;;;;;5.97;3.23;;;34.20;49.40;;;;;;5102344;28;20456;-80
2023/07/15 06:25:38;;;;;;;8.00;3.10;;;33.60;49.90;;;;;;5098600;28;20566;-80
2023/07/15 06:28:26;;;;;;;9.97;3.50;;;33.00;49.90;;;;;;5105580;28;20465;-80
2023/07/15 06:31:01;;;;;;;5.80;3.03;;;31.90;50.50;;;;;;5091997;28;20907;-80
2023/07/15 06:33:30;;;;;;;6.90;3.13;;;30.80;51.40;;;;;;5100631;28;20467;-78
2023/07/15 06:35:58;;;;;;;5.93;3.13;;;29.90;52.30;;;;;;5107959;28;20462;-81
2023/07/15 06:38:28;;;;;;;9.30;3.70;;;29.20;53.30;;;;;;5104403;28;20460;-81
2023/07/15 06:40:57;;;;;;;8.20;3.43;;;28.60;54.30;;;;;;5101364;28;20504;-81
2023/07/15 06:43:26;;;;;;;10.07;3.37;;;28.20;55.00;;;;;;5104750;28;20812;-81
2023/07/15 06:45:55;;;;;;;5.50;3.20;;;27.80;55.50;;;;;;5107097;28;20486;-81
2023/07/15 06:48:23;;;;;;;7.50;3.20;;;27.50;56.10;;;;;;5106520;28;20483;-80
2023/07/15 06:50:53;;;;;;;9.23;3.60;;;27.20;56.50;;;;;;5104603;28;20785;-81
2023/07/15 06:53:21;;;;;;;7.93;3.80;;;27.10;56.90;;;;;;5107929;28;20460;-81
2023/07/15 06:55:51;;;;;;;9.60;3.60;;;26.90;57.30;;;;;;5107675;28;20953;-81
2023/07/15 06:58:34;;;;;;;6.57;3.57;;;26.80;57.70;;;;;;5107819;28;20979;-81
2023/07/15 07:01:02;;;;;;;9.13;3.43;;;26.70;58.00;;;;;;5110288;28;20499;-81
2023/07/15 07:03:30;;;;;;;6.60;3.10;;;26.60;58.10;;;;;;5107488;28;20566;-81
2023/07/15 07:06:01;;;;;;;7.73;3.17;;;26.60;58.40;;;;;;5105129;28;20482;-82
2023/07/15 07:08:29;;;;;;;6.40;3.37;;;26.50;58.60;;;;;;5103063;28;20456;-81
2023/07/15 07:10:57;;;;;;;10.00;3.53;;;26.50;58.90;;;;;;5102889;28;20551;-80
2023/07/15 07:13:27;;;;;;;5.80;3.33;;;26.50;59.00;;;;;;5100124;28;20465;-81
2023/07/15 07:16:02;;;;;;;5.97;3.00;;;26.50;59.10;;;;;;5106995;28;20452;-81
2023/07/15 07:18:30;;;;;;;7.70;3.67;;;26.50;59.10;;;;;;5104314;28;20498;-79
2023/07/15 07:21:02;;;;;;;6.20;3.40;;;26.50;59.20;;;;;;5109234;28;20467;-82
2023/07/15 07:23:30;;;;;;;6.30;3.40;;;26.50;59.40;;;;;;5108525;28;20492;-82
2023/07/15 07:25:58;;;;;;;10.30;3.20;;;26.50;59.50;;;;;;5103331;28;20519;-82
2023/07/15 07:28:39;;;;;;;6.33;3.20;;;26.50;59.50;;;;;;5103686;28;21604;-82
2023/07/15 07:31:09;;;;;;;5.70;2.90;;;26.60;59.40;;;;;;5103276;28;20548;-80
2023/07/15 07:33:38;;;;;;;6.27;3.40;;;26.60;59.50;;;;;;5104452;28;20464;-79
2023/07/15 07:36:06;;;;;;;7.10;3.13;;;26.60;59.30;;;;;;5105343;28;20558;-79
2023/07/15 07:38:35;;;;;;;5.93;3.20;;;26.60;59.20;;;;;;5112464;28;20461;-81
2023/07/15 07:41:06;;;;;;;5.17;2.77;;;26.70;59.10;;;;;;5107349;28;20446;-80
2023/07/15 07:43:35;;;;;;;7.20;3.10;;;26.80;59.00;;;;;;5104409;28;20667;-80
2023/07/15 07:46:06;;;;;;;7.30;3.00;;;26.90;59.10;;;;;;5101583;28;20510;-80
2023/07/15 07:48:36;;;;;;;5.87;3.10;;;27.00;59.00;;;;;;5102641;28;20981;-79
2023/07/15 07:51:04;;;;;;;7.63;2.90;;;27.00;58.60;;;;;;5108230;28;20456;-80
2023/07/15 07:53:32;;;;;;;5.93;3.20;;;27.10;58.70;;;;;;5098745;28;20463;-80
2023/07/15 07:56:00;;;;;;;5.27;2.90;;;27.10;58.50;;;;;;5103786;28;20589;-81
2023/07/15 07:58:28;;;;;;;6.00;3.07;;;27.20;58.50;;;;;;5102972;28;20456;-78
2023/07/15 08:00:56;;;;;;;5.90;2.67;;;27.30;58.50;;;;;;5103043;28;20460;-79
2023/07/15 08:03:24;;;;;;;6.50;2.80;;;27.40;58.30;;;;;;5105559;28;20865;-79
2023/07/15 08:05:54;;;;;;;5.90;3.20;;;27.40;58.20;;;;;;5101773;28;20477;-81
2023/07/15 08:08:22;;;;;;;5.30;2.43;;;27.40;58.00;;;;;;5101656;28;20468;-81
2023/07/15 08:10:50;;;;;;;7.77;3.20;;;27.50;57.90;;;;;;5105242;28;20460;-80
2023/07/15 08:13:18;;;;;;;7.93;2.80;;;27.50;57.70;;;;;;5107728;28;20448;-79
2023/07/15 08:15:46;;;;;;;6.13;2.93;;;27.60;57.50;;;;;;5100630;28;20462;-80
2023/07/15 08:18:14;;;;;;;6.27;2.47;;;27.60;57.30;;;;;;5105401;28;20460;-78
2023/07/15 08:20:42;;;;;;;7.37;3.10;;;27.70;57.20;;;;;;5105522;28;20449;-81
2023/07/15 08:23:11;;;;;;;5.77;2.67;;;27.70;57.20;;;;;;5103865;28;20544;-79
2023/07/15 08:25:40;;;;;;;6.00;2.73;;;27.80;57.30;;;;;;5102004;28;20472;-81
2023/07/15 08:28:08;;;;;;;7.60;2.90;;;27.80;57.20;;;;;;5104504;28;20471;-80
2023/07/15 08:30:36;;;;;;;8.20;2.97;;;27.90;57.00;;;;;;5104588;28;20857;-79
2023/07/15 08:33:06;;;;;;;7.60;2.70;;;27.90;56.90;;;;;;5064893;28;1177101;-79
2023/07/15 08:35:35;;;;;;;6.07;3.07;;;28.10;56.80;;;;;;5102731;28;20443;-79
2023/07/15 08:38:03;;;;;;;6.30;2.90;;;28.20;56.60;;;;;;5102924;28;20818;-80
2023/07/15 08:40:36;;;;;;;6.97;2.83;;;28.30;56.40;;;;;;5101889;28;20462;-79
2023/07/15 08:43:04;;;;;;;7.97;3.30;;;28.50;56.20;;;;;;5102299;27;20549;-79
2023/07/15 08:45:35;;;;;;;6.33;2.70;;;28.70;55.80;;;;;;5102538;28;20996;-81
2023/07/15 08:48:06;;;;;;;5.30;2.43;;;28.80;55.80;;;;;;5105598;28;20550;-79
2023/07/15 08:50:35;;;;;;;9.90;3.40;;;28.90;55.70;;;;;;5102045;28;20466;-79
2023/07/15 08:53:04;;;;;;;6.43;2.57;;;29.00;55.50;;;;;;5099508;28;20480;-78
2023/07/15 08:55:34;;;;;;;7.70;2.83;;;29.00;55.40;;;;;;5101896;27;20479;-78
2023/07/15 08:58:02;;;;;;;6.60;2.63;;;28.90;55.20;;;;;;5099503;28;20663;-80
2023/07/15 09:00:30;;;;;;;7.87;3.20;;;28.80;54.90;;;;;;5103863;27;20463;-78
2023/07/15 09:02:58;;;;;;;8.53;3.10;;;28.80;54.50;;;;;;5103882;28;20530;-77
2023/07/15 09:05:26;;;;;;;6.93;2.53;;;28.80;54.40;;;;;;5102392;28;20471;-79
2023/07/15 09:07:56;;;;;;;7.20;2.70;;;28.70;54.30;;;;;;5099648;28;20483;-78
2023/07/15 09:10:24;;;;;;;7.33;2.83;;;28.70;54.30;;;;;;5099959;28;20479;-79
2023/07/15 09:12:55;;;;;;;6.00;2.73;;;28.60;54.40;;;;;;5099815;28;20491;-79
2023/07/15 09:15:23;;;;;;;6.63;2.60;;;28.60;54.40;;;;;;5096666;28;20518;-76
2023/07/15 09:17:53;;;;;;;6.00;2.87;;;28.60;54.40;;;;;;5098801;28;20500;-79
2023/07/15 09:20:22;;;;;;;6.03;2.67;;;28.50;54.40;;;;;;5100712;28;20472;-78
2023/07/15 09:22:53;;;;;;;7.10;2.90;;;28.50;54.40;;;;;;5099011;28;20466;-76
2023/07/15 09:25:22;;;;;;;8.27;2.77;;;28.50;54.50;;;;;;5100160;28;21138;-76
2023/07/15 09:27:50;;;;;;;8.73;2.90;;;28.50;54.70;;;;;;5094996;28;20495;-78
2023/07/15 09:30:20;;;;;;;7.20;3.13;;;28.60;54.70;;;;;;5095665;28;20467;-78
2023/07/15 09:32:48;;;;;;;6.13;3.33;;;28.60;54.80;;;;;;5098432;28;20834;-77
2023/07/15 09:35:16;;;;;;;6.33;2.73;;;28.70;55.00;;;;;;5099724;28;20475;-75
2023/07/15 09:37:48;;;;;;;7.03;3.60;;;28.80;55.00;;;;;;5098321;28;20533;-77
2023/07/15 09:40:16;;;;;;;6.37;2.60;;;28.90;54.90;;;;;;5100492;28;20961;-78
2023/07/15 09:42:53;;;;;;;7.30;3.00;;;29.00;55.10;;;;;;5105193;28;20934;-76
2023/07/15 09:45:34;;;;;;;6.63;2.50;;;29.10;55.00;;;;;;5101568;28;20455;-78
2023/07/15 09:48:04;;;;;;;5.20;2.53;;;29.20;54.90;;;;;;5099203;28;20857;-79
2023/07/15 09:50:33;;;;;;;5.20;2.60;;;29.30;54.80;;;;;;5100986;28;20491;-78
2023/07/15 09:53:02;;;;;;;6.40;2.80;;;29.40;54.50;;;;;;5100711;28;20467;-77
2023/07/15 09:55:32;;;;;;;6.37;3.07;;;29.50;54.30;;;;;;5101691;28;20551;-79
2023/07/15 09:58:08;;;;;;;5.50;2.73;;;29.60;54.30;;;;;;5094307;28;20804;-74
2023/07/15 10:00:43;;;;;;;7.10;2.63;;;29.70;54.00;;;;;;5096956;28;21161;-78
2023/07/15 10:07:18;;;;;;;7.67;3.63;;;29.80;53.80;;;;;;5092558;28;20482;-77
2023/07/15 10:09:47;;;;;;;6.43;3.03;;;29.80;53.60;;;;;;5099866;28;20543;-77
2023/07/15 10:12:15;;;;;;;7.43;3.53;;;29.90;53.40;;;;;;5099395;28;20467;-77
2023/07/15 10:14:43;;;;;;;10.50;3.10;;;29.90;53.50;;;;;;5096790;28;20474;-76
2023/07/15 10:17:14;;;;;;;5.60;2.53;;;30.00;53.20;;;;;;5100235;28;20449;-79
2023/07/15 10:19:45;;;;;;;9.10;2.80;;;30.00;53.10;;;;;;5097546;28;20456;-78
2023/07/15 10:22:13;;;;;;;8.00;3.00;;;30.10;53.10;;;;;;5098944;28;20466;-77
2023/07/15 10:24:43;;;;;;;7.20;2.87;;;30.10;53.10;;;;;;5094295;28;20470;-78
2023/07/15 10:27:11;;;;;;;7.60;2.77;;;30.20;53.10;;;;;;5096681;28;20487;-79
2023/07/15 10:29:40;;;;;;;7.13;2.87;;;30.20;53.10;;;;;;5098964;28;20474;-77
2023/07/15 10:32:09;;;;;;;7.87;3.43;;;30.20;53.20;;;;;;5098289;28;20477;-78
2023/07/15 10:34:41;;;;;;;7.00;3.20;;;30.30;53.20;;;;;;5096904;28;20511;-77
2023/07/15 10:37:14;;;;;;;6.60;3.53;;;30.10;53.00;;;;;;5104829;28;20452;-76
2023/07/15 10:39:42;;;;;;;7.03;3.13;;;30.10;53.00;;;;;;5099548;28;21164;-78
2023/07/15 10:42:12;;;;;;;7.10;3.17;;;30.20;53.20;;;;;;5098847;28;20502;-76
2023/07/15 10:44:41;;;;;;;5.70;3.17;;;30.30;53.10;;;;;;5095602;28;20464;-76
2023/07/15 10:47:10;;;;;;;6.00;2.80;;;30.30;53.10;;;;;;5092721;28;20477;-77
2023/07/15 10:49:40;;;;;;;6.40;3.13;;;30.40;53.00;;;;;;5097101;28;20426;-78
2023/07/15 10:52:09;;;;;;;7.10;3.40;;;30.50;52.60;;;;;;5104975;28;20535;-79
2023/07/15 10:54:38;;;;;;;5.60;3.00;;;30.50;52.40;;;;;;5100098;28;20502;-77
2023/07/15 10:57:11;;;;;;;6.47;2.93;;;30.40;52.40;;;;;;5097400;28;20469;-80
2023/07/15 10:59:40;;;;;;;7.70;3.13;;;30.50;52.40;;;;;;5096500;28;20814;-78
2023/07/15 11:02:09;;;;;;;6.10;2.83;;;30.50;52.40;;;;;;5097058;28;21083;-77
2023/07/15 11:04:39;;;;;;;6.70;3.47;;;30.60;52.30;;;;;;5092930;28;20445;-77
2023/07/15 11:07:09;;;;;;;6.67;3.00;;;30.60;52.40;;;;;;5092171;28;21050;-79
2023/07/15 11:09:38;;;;;;;8.20;3.20;;;30.70;52.30;;;;;;5093145;28;20471;-79
2023/07/15 11:12:08;;;;;;;8.33;3.20;;;30.70;52.00;;;;;;5098121;28;21047;-78
2023/07/15 11:14:40;;;;;;;6.83;3.27;;;30.70;51.80;;;;;;5096814;28;20495;-78
2023/07/15 11:17:08;;;;;;;6.50;2.30;;;30.80;51.80;;;;;;5093032;28;20938;-78
2023/07/15 11:19:36;;;;;;;6.83;2.97;;;30.80;51.90;;;;;;5111753;28;20460;-78
2023/07/15 11:22:08;;;;;;;6.40;3.30;;;30.80;52.00;;;;;;5106050;28;20934;-79
2023/07/15 11:24:36;;;;;;;6.13;2.53;;;30.80;51.80;;;;;;5103801;28;20468;-79
2023/07/15 11:27:05;;;;;;;8.30;2.80;;;30.80;51.70;;;;;;5099729;28;20473;-78
2023/07/15 11:29:33;;;;;;;8.63;3.20;;;30.80;51.40;;;;;;5099997;28;20481;-78
2023/07/15 11:32:02;;;;;;;5.97;2.80;;;30.80;51.30;;;;;;5103007;27;20486;-79
2023/07/15 11:34:30;;;;;;;6.53;2.53;;;30.80;51.40;;;;;;5096782;28;20504;-78
2023/07/15 11:37:02;;;;;;;6.83;3.10;;;30.80;51.20;;;;;;5102861;28;20444;-78
2023/07/15 11:39:32;;;;;;;8.17;3.07;;;30.80;51.10;;;;;;5108048;27;20549;-79
2023/07/15 11:46:59;;;;;;;5.63;2.83;;;31.00;51.40;;;;;;5096693;27;20799;-78
2023/07/15 11:49:27;;;;;;;5.87;2.60;;;31.00;51.40;;;;;;5096280;27;20431;-78
2023/07/15 11:51:57;;;;;;;16.70;3.87;;;31.10;51.30;;;;;;5095090;28;20487;-79
2023/07/15 11:54:24;;;;;;;16.50;3.60;;;31.20;51.00;;;;;;5097331;28;20551;-78
2023/07/15 11:56:54;;;;;;;9.23;3.43;;;31.20;50.90;;;;;;5103625;27;20479;-79
2023/07/15 11:59:27;;;;;;;7.87;3.00;;;31.20;50.60;;;;;;5101964;28;20574;-79
2023/07/15 12:01:58;;;;;;;5.87;2.70;;;31.10;50.40;;;;;;5099946;28;20479;-77
2023/07/15 12:04:28;;;;;;;9.03;3.80;;;31.10;50.40;;;;;;5101012;28;20455;-79
2023/07/15 12:06:57;;;;;;;7.80;2.93;;;31.00;50.30;;;;;;5103645;28;20950;-78
2023/07/15 12:09:25;;;;;;;10.00;3.77;;;31.00;50.30;;;;;;5099295;28;20462;-79
2023/07/15 12:11:55;;;;;;;6.90;2.80;;;30.90;50.30;;;;;;5098958;28;20468;-78
2023/07/15 12:14:24;;;;;;;6.20;3.20;;;30.90;50.30;;;;;;5096055;28;20457;-77
2023/07/15 12:16:58;;;;;;;6.50;3.20;;;30.90;50.50;;;;;;5102411;28;20495;-78
2023/07/15 12:19:31;;;;;;;11.90;3.53;;;31.00;50.60;;;;;;5103658;28;20889;-78
2023/07/15 12:21:59;;;;;;;6.87;3.27;;;31.10;50.70;;;;;;5098905;28;20974;-78
2023/07/15 12:24:27;;;;;;;10.17;3.20;;;31.10;50.60;;;;;;5106203;27;20550;-79
2023/07/15 12:26:56;;;;;;;5.90;3.07;;;31.10;50.70;;;;;;5101478;28;20471;-79
2023/07/15 12:29:25;;;;;;;7.77;3.43;;;31.10;50.90;;;;;;5100298;28;21231;-79
2023/07/15 12:31:52;;;;;;;5.90;3.17;;;31.10;51.00;;;;;;5101457;28;20551;-78
2023/07/15 12:34:20;;;;;;;8.80;3.80;;;31.10;51.00;;;;;;5106041;28;20459;-79
2023/07/15 12:36:48;;;;;;;9.90;3.63;;;31.10;51.10;;;;;;5107695;28;20511;-78
2023/07/15 12:39:16;;;;;;;6.50;3.20;;;31.00;51.00;;;;;;5106757;28;20505;-78
2023/07/15 12:41:45;;;;;;;5.17;2.97;;;31.00;51.10;;;;;;5103573;28;20456;-79
2023/07/15 12:44:14;;;;;;;12.13;3.80;;;31.00;51.10;;;;;;5105493;28;20953;-80
2023/07/15 12:46:42;;;;;;;6.67;3.07;;;30.90;51.30;;;;;;5105178;28;20440;-79
2023/07/15 12:49:11;;;;;;;8.20;4.00;;;30.90;51.50;;;;;;5104283;28;20481;-79
2023/07/15 12:51:39;;;;;;;7.77;3.90;;;30.90;51.60;;;;;;5100187;28;20458;-79
2023/07/15 12:54:09;;;;;;;11.77;3.80;;;30.90;51.70;;;;;;5102584;27;20530;-78
2023/07/15 12:56:37;;;;;;;8.83;3.87;;;30.90;51.90;;;;;;5097260;28;20497;-79
2023/07/15 12:59:05;;;;;;;11.33;3.87;;;30.90;52.10;;;;;;5100750;28;20475;-79
2023/07/15 13:01:34;;;;;;;6.90;3.73;;;31.00;52.00;;;;;;5096821;28;20475;-79
2023/07/15 13:04:02;;;;;;;9.93;2.93;;;31.00;52.00;;;;;;5099062;28;20496;-78
2023/07/15 13:06:30;;;;;;;6.90;3.50;;;31.10;52.00;;;;;;5100411;28;20529;-79